Salt Wells, Nevada
Current Conditions -  °F | °C
As of 5:56 AM on Sunday 25 Jan 2015 (Local Time) from KNFL Reporting Station
Clear Clear  
Wind Chill: -6°   Ceiling: Unl
Heat Index: -6°   Visibility: 10mi
Dew Point: -12°   Wind: 0mph
Humidity: 63%   Direction: NA
Pressure: 30.44"   Gusts: NA
Location:  39.5809°N, 118.333°W
Report Text: KNFL 251356Z AUTO 00000KT 10SM CLR M06/M12 A3044 RMK AO2 SLP262 T10561117
Loading
Personal Weather Stations






























Interactive Weather Map New forecast layout! Learn more

10-Day Weather Forecast

Advertisements
Track Severe Weather on mobile